createdAt,value
2017-09-21T00:01:52.413Z,20.00
2017-09-21T00:04:20.001Z,20.67
2017-09-21T00:06:47.573Z,18.13
2017-09-21T00:09:15.960Z,20.03
2017-09-21T00:11:44.301Z,21.30
2017-09-21T00:14:11.883Z,21.23
2017-09-21T00:16:39.476Z,21.00
2017-09-21T00:19:07.084Z,20.60
2017-09-21T00:21:34.704Z,19.97
2017-09-21T00:24:02.271Z,21.00
2017-09-21T00:26:29.841Z,22.03
2017-09-21T00:28:57.441Z,19.93
2017-09-21T00:31:25.033Z,22.25
2017-09-21T00:33:53.601Z,21.70
2017-09-21T00:36:21.649Z,23.80
2017-09-21T00:38:49.228Z,23.30
2017-09-21T00:41:16.795Z,21.80
2017-09-21T00:43:45.195Z,22.30
2017-09-21T00:46:13.545Z,22.17
2017-09-21T00:48:41.145Z,20.30
2017-09-21T00:51:08.773Z,21.20
2017-09-21T00:53:36.369Z,23.70
2017-09-21T00:56:03.946Z,23.00
2017-09-21T00:58:31.836Z,23.20
2017-09-21T01:01:01.981Z,21.75
2017-09-21T01:03:29.640Z,19.97
2017-09-21T01:05:57.235Z,20.30
2017-09-21T01:08:24.819Z,21.77
2017-09-21T01:10:52.418Z,21.97
2017-09-21T01:13:20.047Z,23.98
2017-09-21T01:15:47.660Z,23.60
2017-09-21T01:18:16.000Z,23.87
2017-09-21T01:20:43.605Z,23.13
2017-09-21T01:23:12.129Z,22.23
2017-09-21T01:25:39.800Z,23.50
2017-09-21T01:28:07.417Z,22.48
2017-09-21T01:30:35.793Z,23.27
2017-09-21T01:33:04.165Z,25.27
2017-09-21T01:35:32.505Z,24.93
2017-09-21T01:38:01.736Z,23.53
2017-09-21T01:40:30.400Z,23.50
2017-09-21T01:42:57.992Z,24.13
2017-09-21T01:45:26.644Z,24.90
2017-09-21T01:47:54.241Z,25.30
2017-09-21T01:50:22.583Z,24.40
2017-09-21T01:52:50.372Z,25.90
2017-09-21T01:55:17.935Z,24.52
2017-09-21T01:57:45.503Z,25.67
2017-09-21T02:00:13.869Z,22.80
2017-09-21T02:02:41.444Z,22.53
2017-09-21T02:05:09.801Z,22.67
2017-09-21T02:07:37.369Z,23.00
2017-09-21T02:10:04.971Z,23.00
2017-09-21T02:12:32.600Z,21.77
2017-09-21T02:15:01.160Z,21.60
2017-09-21T02:17:28.724Z,21.90
2017-09-21T02:19:56.612Z,22.97
2017-09-21T02:22:24.180Z,22.07
2017-09-21T02:24:52.517Z,23.40
2017-09-21T02:27:20.108Z,22.63
2017-09-21T02:29:49.175Z,22.87
2017-09-21T02:32:16.769Z,22.80
2017-09-21T02:34:45.107Z,22.80
2017-09-21T02:37:12.721Z,24.40
2017-09-21T02:39:41.082Z,24.13
2017-09-21T02:42:08.848Z,24.48
2017-09-21T02:44:36.416Z,25.40
2017-09-21T02:47:04.748Z,25.35
2017-09-21T02:49:32.341Z,24.50
2017-09-21T02:52:01.617Z,24.60
2017-09-21T02:54:29.208Z,29.90
2017-09-21T02:56:56.784Z,32.70
2017-09-21T02:59:25.153Z,33.60
2017-09-21T03:01:52.724Z,36.80
2017-09-21T03:04:21.061Z,43.63
2017-09-21T03:06:48.653Z,42.77
2017-09-21T03:09:16.312Z,36.10
2017-09-21T03:11:43.904Z,33.47
2017-09-21T03:14:11.803Z,32.37
2017-09-21T03:16:39.373Z,34.63
2017-09-21T03:19:06.939Z,36.20
2017-09-21T03:21:34.643Z,36.40
2017-09-21T03:24:03.008Z,31.20
2017-09-21T03:26:30.600Z,41.00
2017-09-21T03:28:59.096Z,38.87
2017-09-21T03:31:26.812Z,40.17
2017-09-21T03:33:54.709Z,37.57
2017-09-21T03:36:22.280Z,29.50
2017-09-21T03:38:49.900Z,27.20
2017-09-21T03:41:17.469Z,24.20
2017-09-21T03:43:45.835Z,24.50
2017-09-21T03:46:13.503Z,24.00
2017-09-21T03:48:41.072Z,23.73
2017-09-21T03:51:08.664Z,26.23
2017-09-21T03:53:36.224Z,24.40
2017-09-21T03:56:03.788Z,25.57
2017-09-21T03:58:31.384Z,26.17
2017-09-21T04:01:00.144Z,24.98
2017-09-21T04:03:27.714Z,25.13
2017-09-21T04:05:55.520Z,26.30
2017-09-21T04:08:23.112Z,27.37
2017-09-21T04:10:51.445Z,28.40
2017-09-21T04:13:19.040Z,25.67
2017-09-21T04:15:47.373Z,25.77
2017-09-21T04:18:14.967Z,28.73
2017-09-21T04:20:42.572Z,24.67
2017-09-21T04:23:10.141Z,27.70
2017-09-21T04:25:37.736Z,29.57
2017-09-21T04:28:05.413Z,24.30
2017-09-21T04:30:33.789Z,26.57
2017-09-21T04:33:02.988Z,27.52
2017-09-21T04:35:30.560Z,25.97
2017-09-21T04:37:59.848Z,26.93
2017-09-21T04:40:28.219Z,25.40
2017-09-21T04:42:55.784Z,29.50
2017-09-21T04:45:23.352Z,29.10
2017-09-21T04:47:50.944Z,37.20
2017-09-21T04:50:18.674Z,31.95
2017-09-21T04:52:46.244Z,30.73
2017-09-21T04:55:14.584Z,31.08
2017-09-21T04:57:42.277Z,41.70
2017-09-21T05:00:09.868Z,34.43
2017-09-21T05:02:38.217Z,41.20
2017-09-21T05:05:05.812Z,44.70
2017-09-21T05:07:33.381Z,42.90
2017-09-21T05:10:02.777Z,45.35
2017-09-21T05:12:30.345Z,41.10
2017-09-21T05:14:58.841Z,44.97
2017-09-21T05:17:26.436Z,40.27
2017-09-21T05:19:54.014Z,36.80
2017-09-21T05:22:22.375Z,37.90
2017-09-21T05:24:49.940Z,43.57
2017-09-21T05:27:17.770Z,46.80
2017-09-21T05:29:45.336Z,45.60
2017-09-21T05:32:12.911Z,38.47
2017-09-21T05:34:40.509Z,37.33
2017-09-21T05:37:08.849Z,47.13
2017-09-21T05:39:36.537Z,47.17
2017-09-21T05:42:04.107Z,42.03
2017-09-21T05:44:32.467Z,35.30
2017-09-21T05:47:01.855Z,39.17
2017-09-21T05:49:29.451Z,37.10
2017-09-21T05:51:57.793Z,39.67
2017-09-21T05:54:25.384Z,35.53
2017-09-21T05:56:52.950Z,32.87
2017-09-21T05:59:21.307Z,43.07
2017-09-21T06:01:48.879Z,41.03
2017-09-21T06:04:16.543Z,34.17
2017-09-21T06:06:44.113Z,35.23
2017-09-21T06:09:12.451Z,41.22
2017-09-21T06:11:40.049Z,42.65
2017-09-21T06:14:07.705Z,31.97
2017-09-21T06:16:35.276Z,30.10
2017-09-21T06:19:03.664Z,29.40
2017-09-21T06:21:31.996Z,23.90
2017-09-21T06:24:02.124Z,25.17
2017-09-21T06:26:29.715Z,18.90
2017-09-21T06:28:58.057Z,20.30
2017-09-21T06:31:25.662Z,21.97
2017-09-21T06:33:53.996Z,20.60
2017-09-21T06:36:21.569Z,19.50
2017-09-21T06:38:49.160Z,19.47
2017-09-21T06:41:17.676Z,17.20
2017-09-21T06:43:45.283Z,15.30
2017-09-21T06:46:12.947Z,14.20
2017-09-21T06:48:41.308Z,14.10
2017-09-21T06:51:08.987Z,13.80
2017-09-21T06:53:37.329Z,13.50
2017-09-21T06:56:04.901Z,11.93
2017-09-21T06:58:32.496Z,13.50
2017-09-21T07:01:01.871Z,11.80
2017-09-21T07:03:29.464Z,12.40
2017-09-21T07:05:57.032Z,12.53
2017-09-21T07:08:25.419Z,12.40
2017-09-21T07:10:53.773Z,13.43
2017-09-21T07:13:21.340Z,12.50
2017-09-21T07:15:49.204Z,12.20
2017-09-21T07:18:16.863Z,13.87
2017-09-21T07:20:44.428Z,12.60
2017-09-21T07:23:12.092Z,12.43
2017-09-21T07:25:39.655Z,12.80
2017-09-21T07:28:07.312Z,12.73
2017-09-21T07:30:36.416Z,13.13
2017-09-21T07:33:04.781Z,12.73
2017-09-21T07:35:32.356Z,13.90
2017-09-21T07:38:01.756Z,11.83
2017-09-21T07:40:29.417Z,11.67
2017-09-21T07:42:57.012Z,12.47
2017-09-21T07:45:24.588Z,12.83
2017-09-21T07:47:52.180Z,13.77
2017-09-21T07:50:19.745Z,12.37
2017-09-21T07:52:47.340Z,13.20
2017-09-21T07:55:15.681Z,13.10
2017-09-21T07:57:43.276Z,13.30
2017-09-21T08:00:11.603Z,13.15
2017-09-21T08:02:39.404Z,12.37
2017-09-21T08:05:06.976Z,12.05
2017-09-21T08:07:35.307Z,12.70
2017-09-21T08:10:02.906Z,13.47
2017-09-21T08:12:30.572Z,13.97
2017-09-21T08:14:59.072Z,13.13
2017-09-21T08:17:27.408Z,12.40
2017-09-21T08:19:55.325Z,13.83
2017-09-21T08:22:23.780Z,11.90
2017-09-21T08:24:51.348Z,13.13
2017-09-21T08:27:19.690Z,12.43
2017-09-21T08:29:47.380Z,13.60
2017-09-21T08:32:15.721Z,12.85
2017-09-21T08:34:43.525Z,12.77
2017-09-21T08:37:11.193Z,13.27
2017-09-21T08:39:38.844Z,12.70
2017-09-21T08:42:06.445Z,12.37
2017-09-21T08:44:34.073Z,13.97
2017-09-21T08:47:02.676Z,12.40
2017-09-21T08:49:31.016Z,12.40
2017-09-21T08:52:01.091Z,13.55
2017-09-21T08:54:28.663Z,13.03
2017-09-21T08:56:56.237Z,13.10
2017-09-21T08:59:23.837Z,10.90
2017-09-21T09:01:51.409Z,13.73
2017-09-21T09:04:19.767Z,14.40
2017-09-21T09:06:47.336Z,12.60
2017-09-21T09:09:16.640Z,14.35
2017-09-21T09:11:45.716Z,13.30
2017-09-21T09:14:13.289Z,14.77
2017-09-21T09:16:41.249Z,13.70
2017-09-21T09:19:08.824Z,15.40
2017-09-21T09:21:36.392Z,15.53
2017-09-21T09:24:03.983Z,14.70
2017-09-21T09:26:31.556Z,15.43
2017-09-21T09:29:01.733Z,15.55
2017-09-21T09:31:29.303Z,15.50
2017-09-21T09:33:57.686Z,15.63
2017-09-21T09:36:26.025Z,15.87
2017-09-21T09:38:53.596Z,16.00
2017-09-21T09:41:21.555Z,15.60
2017-09-21T09:43:49.161Z,16.70
2017-09-21T09:46:17.511Z,14.60
2017-09-21T09:48:45.181Z,14.87
2017-09-21T09:51:12.783Z,14.57
2017-09-21T09:53:40.353Z,15.50
2017-09-21T09:56:07.948Z,17.17
2017-09-21T09:58:35.515Z,16.07
2017-09-21T10:01:03.112Z,15.80
2017-09-21T10:03:31.460Z,15.60
2017-09-21T10:06:00.872Z,15.50
2017-09-21T10:08:28.441Z,14.80
2017-09-21T10:10:56.803Z,14.70
2017-09-21T10:13:24.472Z,14.90
2017-09-21T10:15:52.232Z,13.20
2017-09-21T10:18:19.795Z,14.47
2017-09-21T10:20:47.367Z,12.80
2017-09-21T10:23:15.732Z,13.20
2017-09-21T10:25:43.400Z,12.30
2017-09-21T10:28:11.176Z,11.90
2017-09-21T10:30:39.540Z,11.13
2017-09-21T10:33:07.924Z,11.00
2017-09-21T10:35:37.120Z,10.10
2017-09-21T10:38:04.880Z,9.67
2017-09-21T10:40:32.548Z,12.63
2017-09-21T10:43:01.928Z,10.07
2017-09-21T10:45:29.522Z,10.10
2017-09-21T10:47:58.080Z,9.30
2017-09-21T10:50:25.693Z,9.60
2017-09-21T10:52:53.262Z,11.67
2017-09-21T10:55:20.833Z,11.50
2017-09-21T10:57:48.443Z,12.37
2017-09-21T11:00:16.012Z,11.50
2017-09-21T11:02:44.376Z,11.80
2017-09-21T11:05:11.969Z,10.80
2017-09-21T11:07:40.524Z,10.03
2017-09-21T11:10:08.097Z,11.52
2017-09-21T11:12:36.437Z,10.77
2017-09-21T11:15:04.120Z,9.87
2017-09-21T11:17:32.456Z,8.83
2017-09-21T11:20:01.797Z,9.87
2017-09-21T11:22:29.374Z,9.20
2017-09-21T11:24:56.965Z,8.20
2017-09-21T11:27:24.532Z,9.67
2017-09-21T11:29:52.128Z,8.90
2017-09-21T11:32:19.996Z,9.07
2017-09-21T11:34:47.683Z,8.37
2017-09-21T11:37:15.245Z,9.50
2017-09-21T11:39:44.436Z,10.30
2017-09-21T11:42:12.105Z,9.10
2017-09-21T11:44:39.765Z,12.13
2017-09-21T11:47:07.432Z,10.97
2017-09-21T11:49:35.100Z,11.23
2017-09-21T11:52:03.468Z,9.50
2017-09-21T11:54:31.061Z,9.37
2017-09-21T11:56:59.804Z,9.70
2017-09-21T11:59:27.373Z,9.50
2017-09-21T12:01:54.969Z,10.30
2017-09-21T12:04:23.321Z,9.80
2017-09-21T12:06:51.700Z,10.17
2017-09-21T12:09:19.355Z,9.07
2017-09-21T12:11:46.943Z,10.03
2017-09-21T12:14:15.284Z,9.05
2017-09-21T12:16:42.880Z,9.60
2017-09-21T12:19:11.256Z,8.00
2017-09-21T12:21:39.621Z,8.60
2017-09-21T12:24:07.216Z,8.00
2017-09-21T12:26:34.780Z,7.03
2017-09-21T12:29:02.406Z,9.23
2017-09-21T12:31:29.968Z,7.50
2017-09-21T12:33:57.560Z,8.50
2017-09-21T12:36:25.189Z,8.00
2017-09-21T12:38:52.952Z,7.30
2017-09-21T12:41:22.028Z,6.80
2017-09-21T12:43:49.593Z,7.83
2017-09-21T12:46:17.189Z,7.43
2017-09-21T12:48:45.529Z,7.60
2017-09-21T12:51:13.909Z,7.07
2017-09-21T12:53:41.489Z,7.40
2017-09-21T12:56:09.826Z,7.60
2017-09-21T12:58:37.421Z,7.60
2017-09-21T13:01:04.983Z,7.70
2017-09-21T13:03:32.568Z,6.60
2017-09-21T13:06:00.896Z,7.40
2017-09-21T13:08:28.489Z,7.80
2017-09-21T13:10:57.646Z,7.50
2017-09-21T13:13:25.255Z,7.03
2017-09-21T13:15:52.820Z,8.27
2017-09-21T13:18:21.180Z,8.17
2017-09-21T13:20:48.748Z,8.00
2017-09-21T13:23:16.372Z,7.60
2017-09-21T13:25:43.964Z,8.20
2017-09-21T13:28:12.342Z,8.60
2017-09-21T13:30:39.969Z,7.32
2017-09-21T13:33:07.533Z,7.68
2017-09-21T13:35:35.124Z,7.80
2017-09-21T13:38:02.688Z,9.10
2017-09-21T13:40:30.358Z,9.53
2017-09-21T13:42:57.928Z,10.40
2017-09-21T13:45:26.289Z,10.70
2017-09-21T13:47:53.952Z,10.63
2017-09-21T13:50:21.553Z,10.10
2017-09-21T13:52:49.236Z,10.83
2017-09-21T13:55:16.848Z,11.55
2017-09-21T13:57:44.504Z,11.27
2017-09-21T14:00:12.890Z,11.07
2017-09-21T14:02:40.484Z,9.93
2017-09-21T14:05:08.114Z,9.50
2017-09-21T14:07:35.744Z,10.80
2017-09-21T14:10:03.313Z,10.60
2017-09-21T14:12:33.280Z,10.73
2017-09-21T14:15:02.680Z,10.40
2017-09-21T14:17:31.018Z,10.37
2017-09-21T14:20:00.839Z,10.82
2017-09-21T14:22:28.426Z,10.20
2017-09-21T14:24:56.969Z,10.13
2017-09-21T14:27:24.573Z,10.43
2017-09-21T14:29:52.928Z,10.07
2017-09-21T14:32:21.264Z,10.50
2017-09-21T14:34:48.868Z,10.63
2017-09-21T14:37:16.444Z,10.57
2017-09-21T14:39:44.808Z,10.63
2017-09-21T14:42:12.380Z,11.00
2017-09-21T14:44:40.740Z,11.23
2017-09-21T14:47:08.316Z,11.73
2017-09-21T14:49:35.908Z,10.53
2017-09-21T14:52:03.481Z,10.37
2017-09-21T14:54:31.081Z,10.50
2017-09-21T14:57:00.885Z,10.55
2017-09-21T14:59:28.664Z,9.93
2017-09-21T15:01:56.332Z,9.93
2017-09-21T15:04:23.904Z,11.17
2017-09-21T15:06:52.368Z,9.63
2017-09-21T15:09:20.036Z,8.50
2017-09-21T15:11:48.373Z,8.80
2017-09-21T15:14:15.966Z,8.77
2017-09-21T15:16:43.536Z,8.00
2017-09-21T15:19:11.193Z,8.82
2017-09-21T15:21:38.756Z,8.50
2017-09-21T15:24:06.344Z,9.20
2017-09-21T15:26:34.673Z,10.53
2017-09-21T15:29:02.260Z,9.30
2017-09-21T15:31:30.924Z,8.80
2017-09-21T15:33:59.124Z,9.07
2017-09-21T15:36:26.693Z,9.00
2017-09-21T15:38:55.056Z,8.23
2017-09-21T15:41:22.721Z,8.53
2017-09-21T15:43:51.076Z,9.23
2017-09-21T15:46:18.640Z,8.50
2017-09-21T15:48:46.237Z,8.90
2017-09-21T15:51:14.571Z,9.07
2017-09-21T15:53:42.271Z,9.00
2017-09-21T15:56:09.840Z,7.37
2017-09-21T15:58:38.207Z,7.67
2017-09-21T16:01:05.804Z,8.43
2017-09-21T16:03:33.367Z,7.40
2017-09-21T16:06:03.222Z,7.35
2017-09-21T16:08:30.801Z,7.43
2017-09-21T16:10:59.312Z,7.40
2017-09-21T16:13:27.648Z,6.33
2017-09-21T16:15:55.231Z,6.77
2017-09-21T16:18:22.804Z,6.60
2017-09-21T16:20:51.160Z,7.53
2017-09-21T16:23:19.497Z,6.22
2017-09-21T16:25:47.303Z,6.67
2017-09-21T16:28:14.937Z,6.65
2017-09-21T16:30:42.524Z,7.57
2017-09-21T16:33:10.120Z,7.37
2017-09-21T16:35:38.460Z,6.57
2017-09-21T16:38:06.057Z,7.15
2017-09-21T16:40:34.428Z,7.63
2017-09-21T16:43:02.048Z,7.63
2017-09-21T16:45:29.612Z,7.60
2017-09-21T16:47:57.176Z,7.37
2017-09-21T16:50:24.776Z,7.33
2017-09-21T16:52:53.113Z,8.00
2017-09-21T16:55:20.713Z,8.87
2017-09-21T16:57:49.077Z,8.03
2017-09-21T17:00:17.435Z,8.17
2017-09-21T17:02:45.024Z,8.67
2017-09-21T17:05:13.384Z,8.50
2017-09-21T17:07:40.948Z,7.60
2017-09-21T17:10:09.309Z,7.97
2017-09-21T17:12:36.880Z,9.20
2017-09-21T17:15:04.477Z,8.05
2017-09-21T17:17:32.832Z,8.37
2017-09-21T17:20:02.124Z,8.50
2017-09-21T17:22:29.793Z,7.60
2017-09-21T17:24:57.476Z,7.73
2017-09-21T17:27:25.073Z,7.67
2017-09-21T17:29:52.667Z,6.70
2017-09-21T17:32:20.236Z,7.70
2017-09-21T17:34:47.905Z,8.10
2017-09-21T17:37:15.468Z,8.13
2017-09-21T17:39:43.128Z,6.80
2017-09-21T17:42:12.204Z,7.47
2017-09-21T17:44:39.885Z,7.60
2017-09-21T17:47:07.448Z,7.97
2017-09-21T17:49:35.107Z,7.23
2017-09-21T17:52:02.701Z,8.27
2017-09-21T17:54:30.332Z,7.03
2017-09-21T17:56:57.892Z,6.83
2017-09-21T17:59:25.841Z,7.70
2017-09-21T18:01:53.409Z,8.50
2017-09-21T18:04:21.084Z,6.70
2017-09-21T18:06:48.747Z,7.73
2017-09-21T18:09:16.408Z,8.43
2017-09-21T18:11:43.971Z,7.62
2017-09-21T18:14:11.560Z,7.37
2017-09-21T18:16:39.924Z,8.30
2017-09-21T18:19:08.280Z,8.95
2017-09-21T18:21:35.844Z,8.07
2017-09-21T18:24:03.433Z,8.02
2017-09-21T18:26:31.765Z,7.97
2017-09-21T18:29:01.708Z,8.33
2017-09-21T18:31:29.280Z,7.63
2017-09-21T18:33:57.631Z,7.47
2017-09-21T18:36:25.204Z,7.80
2017-09-21T18:38:52.972Z,8.00
2017-09-21T18:41:20.631Z,7.57
2017-09-21T18:43:48.201Z,7.90
2017-09-21T18:46:15.792Z,8.67
2017-09-21T18:48:43.366Z,8.20
2017-09-21T18:51:10.980Z,8.02
2017-09-21T18:53:38.556Z,7.50
2017-09-21T18:56:06.937Z,7.80
2017-09-21T18:58:35.292Z,7.57
2017-09-21T19:01:02.873Z,7.43
2017-09-21T19:03:31.228Z,8.97
2017-09-21T19:06:00.921Z,8.45
2017-09-21T19:08:28.511Z,9.20
2017-09-21T19:10:56.082Z,8.35
2017-09-21T19:13:24.457Z,8.90
2017-09-21T19:15:52.479Z,9.60
2017-09-21T19:18:20.119Z,9.17
2017-09-21T19:20:47.683Z,8.70
2017-09-21T19:23:15.273Z,9.35
2017-09-21T19:25:42.864Z,8.40
2017-09-21T19:28:10.508Z,8.90
2017-09-21T19:30:38.080Z,9.50
2017-09-21T19:33:05.692Z,9.98
2017-09-21T19:35:33.260Z,10.80
2017-09-21T19:38:02.509Z,9.52
2017-09-21T19:40:30.109Z,11.20
2017-09-21T19:42:57.729Z,10.17
2017-09-21T19:45:25.389Z,9.90
2017-09-21T19:47:53.376Z,9.80
2017-09-21T19:50:21.788Z,11.97
2017-09-21T19:52:49.352Z,9.90
2017-09-21T19:55:16.968Z,10.95
2017-09-21T19:57:44.627Z,11.03
2017-09-21T20:00:12.201Z,11.23
2017-09-21T20:02:40.560Z,10.73
2017-09-21T20:05:09.692Z,10.40
2017-09-21T20:07:38.195Z,10.93
2017-09-21T20:10:05.760Z,12.27
2017-09-21T20:12:35.178Z,11.98
2017-09-21T20:15:02.860Z,11.47
2017-09-21T20:17:30.840Z,12.97
2017-09-21T20:20:00.743Z,12.60
2017-09-21T20:22:28.341Z,13.00
2017-09-21T20:24:56.684Z,11.40
2017-09-21T20:27:24.284Z,12.87
2017-09-21T20:29:52.628Z,11.40
2017-09-21T20:32:20.236Z,12.77
2017-09-21T20:34:47.812Z,12.10
2017-09-21T20:37:15.382Z,14.33
2017-09-21T20:39:42.988Z,13.73
2017-09-21T20:42:10.562Z,12.80
2017-09-21T20:44:38.956Z,13.23
2017-09-21T20:47:06.599Z,14.70
2017-09-21T20:49:34.938Z,13.73
2017-09-21T20:52:02.536Z,13.13
2017-09-21T20:54:30.108Z,12.50
2017-09-21T20:56:59.388Z,10.80
2017-09-21T20:59:26.960Z,11.90
2017-09-21T21:01:55.350Z,11.87
2017-09-21T21:04:23.712Z,11.93
2017-09-21T21:06:51.368Z,14.43
2017-09-21T21:09:18.964Z,13.03
2017-09-21T21:11:46.536Z,12.63
2017-09-21T21:14:14.255Z,13.20
2017-09-21T21:16:41.819Z,14.27
2017-09-21T21:19:09.393Z,13.85
2017-09-21T21:21:38.044Z,14.30
2017-09-21T21:24:05.611Z,15.63
2017-09-21T21:26:33.284Z,15.43
2017-09-21T21:29:02.794Z,16.37
2017-09-21T21:31:30.387Z,16.90
2017-09-21T21:33:57.952Z,17.23
2017-09-21T21:36:25.717Z,17.13
2017-09-21T21:38:53.291Z,17.93
2017-09-21T21:41:20.857Z,16.50
2017-09-21T21:43:48.459Z,16.00
2017-09-21T21:46:16.032Z,16.77
2017-09-21T21:48:44.391Z,16.40
2017-09-21T21:51:11.960Z,16.37
2017-09-21T21:53:39.551Z,16.47
2017-09-21T21:56:07.124Z,16.50
2017-09-21T21:58:34.755Z,18.27
2017-09-21T22:01:03.125Z,16.90
2017-09-21T22:03:30.700Z,18.10
2017-09-21T22:05:59.773Z,18.77
2017-09-21T22:08:27.344Z,17.83
2017-09-21T22:10:55.394Z,19.37
2017-09-21T22:13:22.963Z,18.90
2017-09-21T22:15:50.555Z,19.40
2017-09-21T22:18:19.003Z,19.57
2017-09-21T22:20:46.680Z,19.10
2017-09-21T22:23:14.344Z,21.15
2017-09-21T22:25:41.969Z,19.43
2017-09-21T22:28:09.547Z,20.80
2017-09-21T22:30:37.219Z,20.60
2017-09-21T22:33:06.328Z,20.40
2017-09-21T22:35:33.896Z,20.23
2017-09-21T22:38:02.885Z,22.20
2017-09-21T22:40:30.456Z,21.60
2017-09-21T22:42:59.945Z,22.30
2017-09-21T22:45:27.516Z,21.27
2017-09-21T22:47:55.849Z,23.63
2017-09-21T22:50:23.447Z,21.67
2017-09-21T22:52:52.529Z,21.40
2017-09-21T22:55:20.124Z,22.30
2017-09-21T22:57:48.469Z,21.90
2017-09-21T23:00:16.135Z,22.80
2017-09-21T23:02:43.704Z,20.23
2017-09-21T23:05:11.292Z,20.77
2017-09-21T23:07:39.623Z,22.30
2017-09-21T23:10:07.224Z,20.92
2017-09-21T23:12:35.558Z,21.87
2017-09-21T23:15:03.152Z,22.80
2017-09-21T23:17:31.488Z,22.67
2017-09-21T23:20:01.644Z,23.65
2017-09-21T23:22:32.058Z,25.97
2017-09-21T23:25:01.393Z,24.60
2017-09-21T23:27:29.740Z,26.85
2017-09-21T23:29:57.307Z,25.93
2017-09-21T23:32:26.413Z,24.33
2017-09-21T23:34:54.747Z,28.30
2017-09-21T23:37:22.444Z,27.13
2017-09-21T23:39:50.116Z,30.53
2017-09-21T23:42:17.712Z,29.77
2017-09-21T23:44:45.336Z,29.17
2017-09-21T23:47:12.949Z,28.20
2017-09-21T23:49:40.521Z,24.07
2017-09-21T23:52:08.120Z,25.20
2017-09-21T23:54:35.723Z,27.40
2017-09-21T23:57:03.293Z,28.10
2017-09-21T23:59:30.888Z,29.07
